createdAt,value
2019-04-29T00:00:35.454Z,12.75
2019-04-29T00:03:06.715Z,12.33
2019-04-29T00:05:36.146Z,12.28
2019-04-29T00:08:05.652Z,13.15
2019-04-29T00:10:35.278Z,13.28
2019-04-29T00:13:04.784Z,11.97
2019-04-29T00:15:41.818Z,13.30
2019-04-29T00:18:16.155Z,13.28
2019-04-29T00:20:48.857Z,13.30
2019-04-29T00:23:18.382Z,13.70
2019-04-29T00:25:47.865Z,13.93
2019-04-29T00:28:17.771Z,13.58
2019-04-29T00:30:47.293Z,13.60
2019-04-29T00:33:16.887Z,14.30
2019-04-29T00:35:46.408Z,13.80
2019-04-29T00:38:29.571Z,14.83
2019-04-29T00:41:09.797Z,15.03
2019-04-29T00:43:49.764Z,14.50
2019-04-29T00:46:19.308Z,14.20
2019-04-29T00:48:48.854Z,15.10
2019-04-29T00:51:19.362Z,14.98
2019-04-29T00:53:50.478Z,15.50
2019-04-29T00:56:19.938Z,15.32
2019-04-29T00:58:49.410Z,15.30
2019-04-29T01:01:20.482Z,14.70
2019-04-29T01:03:49.943Z,14.60
2019-04-29T01:06:19.415Z,15.58
2019-04-29T01:08:49.078Z,15.50
2019-04-29T01:11:18.619Z,15.90
2019-04-29T01:13:48.079Z,16.23
2019-04-29T01:16:17.818Z,15.75
2019-04-29T01:18:47.416Z,15.68
2019-04-29T01:21:16.921Z,16.05
2019-04-29T01:23:46.428Z,16.60
2019-04-29T01:26:17.502Z,17.15
2019-04-29T01:28:49.510Z,16.37
2019-04-29T01:31:21.679Z,16.40
2019-04-29T01:33:52.777Z,16.35
2019-04-29T01:36:23.859Z,15.45
2019-04-29T01:38:54.950Z,16.77
2019-04-29T01:41:38.338Z,17.02
2019-04-29T01:44:09.339Z,16.20
2019-04-29T01:46:38.777Z,16.48
2019-04-29T01:49:08.241Z,16.80
2019-04-29T01:51:37.669Z,17.05
2019-04-29T01:54:07.157Z,17.02
2019-04-29T01:56:36.592Z,16.80
2019-04-29T01:59:06.046Z,17.73
2019-04-29T02:01:35.593Z,16.70
2019-04-29T02:04:05.090Z,17.15
2019-04-29T02:06:34.558Z,17.65
2019-04-29T02:09:06.448Z,16.80
2019-04-29T02:11:36.081Z,17.02
2019-04-29T02:14:05.695Z,16.60
2019-04-29T02:16:35.163Z,16.97
2019-04-29T02:19:04.595Z,16.70
2019-04-29T02:21:34.027Z,17.82
2019-04-29T02:24:05.503Z,17.87
2019-04-29T02:26:34.943Z,17.07
2019-04-29T02:29:04.689Z,17.05
2019-04-29T02:31:41.492Z,18.12
2019-04-29T02:34:11.041Z,17.80
2019-04-29T02:36:40.538Z,18.05
2019-04-29T02:39:25.265Z,17.00
2019-04-29T02:42:05.675Z,17.98
2019-04-29T02:44:35.159Z,18.95
2019-04-29T02:47:05.083Z,18.62
2019-04-29T02:49:34.551Z,19.20
2019-04-29T02:52:04.060Z,18.85
2019-04-29T02:54:33.551Z,17.90
2019-04-29T02:57:16.617Z,18.05
2019-04-29T02:59:50.382Z,18.35
2019-04-29T03:02:27.300Z,18.30
2019-04-29T03:05:10.675Z,18.90
2019-04-29T03:07:40.226Z,18.60
2019-04-29T03:10:10.109Z,19.10
2019-04-29T03:12:40.372Z,19.50
2019-04-29T03:15:10.102Z,19.42
2019-04-29T03:17:39.652Z,19.87
2019-04-29T03:20:23.109Z,20.15
2019-04-29T03:22:54.219Z,19.77
2019-04-29T03:25:23.826Z,19.70
2019-04-29T03:27:53.259Z,19.82
2019-04-29T03:30:22.721Z,19.57
2019-04-29T03:32:52.267Z,21.05
2019-04-29T03:35:21.760Z,20.75
2019-04-29T03:37:51.193Z,20.08
2019-04-29T03:40:20.649Z,20.32
2019-04-29T03:42:50.112Z,21.07
2019-04-29T03:45:19.601Z,20.72
2019-04-29T03:47:49.322Z,20.92
2019-04-29T03:50:18.759Z,20.37
2019-04-29T03:52:48.219Z,21.30
2019-04-29T03:55:17.758Z,20.60
2019-04-29T03:57:47.194Z,20.65
2019-04-29T04:00:18.137Z,20.35
2019-04-29T04:02:49.222Z,21.25
2019-04-29T04:05:23.052Z,21.33
2019-04-29T04:08:00.093Z,20.90
2019-04-29T04:10:29.531Z,20.35
2019-04-29T04:12:58.997Z,19.27
2019-04-29T04:15:28.459Z,20.05
2019-04-29T04:18:02.488Z,19.82
2019-04-29T04:20:31.956Z,19.00
2019-04-29T04:23:01.471Z,19.20
2019-04-29T04:25:31.041Z,20.48
2019-04-29T04:28:00.494Z,18.42
2019-04-29T04:30:29.955Z,18.98
2019-04-29T04:32:59.665Z,18.73
2019-04-29T04:35:29.297Z,18.90
2019-04-29T04:37:58.774Z,18.02
2019-04-29T04:40:38.773Z,18.20
2019-04-29T04:43:08.257Z,17.37
2019-04-29T04:45:37.764Z,16.55
2019-04-29T04:48:07.287Z,17.42
2019-04-29T04:50:36.776Z,16.82
2019-04-29T04:53:07.261Z,16.55
2019-04-29T04:55:38.368Z,17.10
2019-04-29T04:58:07.825Z,15.88
2019-04-29T05:00:38.044Z,15.58
2019-04-29T05:03:07.478Z,15.48
2019-04-29T05:05:36.947Z,15.78
2019-04-29T05:08:06.403Z,15.53
2019-04-29T05:10:35.894Z,14.38
2019-04-29T05:13:05.321Z,13.98
2019-04-29T05:15:34.942Z,14.73
2019-04-29T05:18:05.444Z,14.65
2019-04-29T05:20:34.983Z,14.40
2019-04-29T05:23:04.915Z,13.32
2019-04-29T05:25:35.090Z,13.50
2019-04-29T05:28:05.174Z,13.00
2019-04-29T05:30:34.612Z,12.80
2019-04-29T05:33:04.397Z,12.88
2019-04-29T05:35:35.483Z,12.70
2019-04-29T05:38:06.607Z,12.80
2019-04-29T05:40:40.270Z,12.25
2019-04-29T05:43:11.455Z,10.53
2019-04-29T05:45:46.314Z,11.60
2019-04-29T05:48:18.280Z,11.70
2019-04-29T05:50:56.317Z,11.95
2019-04-29T05:53:27.431Z,12.25
2019-04-29T05:55:56.922Z,11.20
2019-04-29T05:58:26.707Z,11.75
2019-04-29T06:01:00.536Z,11.78
2019-04-29T06:03:33.640Z,11.15
2019-04-29T06:06:01.174Z,11.08
2019-04-29T06:08:34.610Z,11.38
2019-04-29T06:11:01.817Z,10.18
2019-04-29T06:13:31.295Z,10.18
2019-04-29T06:16:00.730Z,10.38
2019-04-29T06:18:30.204Z,10.03
2019-04-29T06:21:08.765Z,10.53
2019-04-29T06:23:30.897Z,10.40
2019-04-29T06:26:00.458Z,9.90
2019-04-29T06:28:29.949Z,9.48
2019-04-29T06:30:59.686Z,9.25
2019-04-29T06:33:30.986Z,9.10
2019-04-29T06:36:00.574Z,9.13
2019-04-29T06:38:30.186Z,9.08
2019-04-29T06:40:59.635Z,8.95
2019-04-29T06:43:30.702Z,9.48
2019-04-29T06:46:00.383Z,9.23
2019-04-29T06:48:29.865Z,9.35
2019-04-29T06:50:59.330Z,9.78
2019-04-29T06:53:28.827Z,9.53
2019-04-29T06:55:58.363Z,9.55
2019-04-29T06:58:27.832Z,9.65
2019-04-29T07:01:00.989Z,10.05
2019-04-29T07:03:28.438Z,9.75
2019-04-29T07:05:57.916Z,9.70
2019-04-29T07:08:27.467Z,9.73
2019-04-29T07:11:01.045Z,9.65
2019-04-29T07:13:28.158Z,9.65
2019-04-29T07:15:57.626Z,9.28
2019-04-29T07:18:27.172Z,9.30
2019-04-29T07:20:56.652Z,8.78
2019-04-29T07:23:26.153Z,9.55
2019-04-29T07:25:55.696Z,9.33
2019-04-29T07:28:25.129Z,8.98
2019-04-29T07:31:03.062Z,8.53
2019-04-29T07:33:25.744Z,8.25
2019-04-29T07:35:55.214Z,7.50
2019-04-29T07:38:24.695Z,8.25
2019-04-29T07:40:54.189Z,7.37
2019-04-29T07:43:23.607Z,8.03
2019-04-29T07:45:58.945Z,7.67
2019-04-29T07:48:25.896Z,7.30
2019-04-29T07:50:55.402Z,8.08
2019-04-29T07:53:34.539Z,7.62
2019-04-29T07:55:55.972Z,8.30
2019-04-29T07:58:27.369Z,7.87
2019-04-29T08:00:56.566Z,8.48
2019-04-29T08:03:26.029Z,8.75
2019-04-29T08:05:55.507Z,9.45
2019-04-29T08:08:25.289Z,9.75
2019-04-29T08:10:56.871Z,10.10
2019-04-29T08:13:28.154Z,9.70
2019-04-29T08:15:57.704Z,10.45
2019-04-29T08:18:27.149Z,10.72
2019-04-29T08:20:57.631Z,12.60
2019-04-29T08:23:27.076Z,12.68
2019-04-29T08:25:57.390Z,12.07
2019-04-29T08:28:27.736Z,12.00
2019-04-29T08:30:57.340Z,12.10
2019-04-29T08:33:26.773Z,12.70
2019-04-29T08:35:56.258Z,13.78
2019-04-29T08:38:25.697Z,14.47
2019-04-29T08:40:55.318Z,13.45
2019-04-29T08:43:26.437Z,13.20
2019-04-29T08:46:03.537Z,14.40
2019-04-29T08:48:32.985Z,13.68
2019-04-29T08:51:02.461Z,14.73
2019-04-29T08:53:31.908Z,14.87
2019-04-29T08:56:01.459Z,15.25
2019-04-29T08:58:30.906Z,15.55
2019-04-29T09:01:00.382Z,16.25
2019-04-29T09:03:40.036Z,16.77
2019-04-29T09:06:05.481Z,18.07
2019-04-29T09:08:33.172Z,18.50
2019-04-29T09:11:03.542Z,17.52
2019-04-29T09:13:32.985Z,17.90
2019-04-29T09:16:02.471Z,17.82
2019-04-29T09:18:31.922Z,18.80
2019-04-29T09:21:01.360Z,18.35
2019-04-29T09:23:32.649Z,18.48
2019-04-29T09:26:03.741Z,18.92
2019-04-29T09:28:33.264Z,19.32
2019-04-29T09:31:03.762Z,18.70
2019-04-29T09:33:34.208Z,19.12
2019-04-29T09:36:03.675Z,20.02
2019-04-29T09:38:36.813Z,19.17
2019-04-29T09:41:11.748Z,18.07
2019-04-29T09:44:03.581Z,20.37
2019-04-29T09:46:34.499Z,19.10
2019-04-29T09:49:03.622Z,20.00
2019-04-29T09:51:33.172Z,19.10
2019-04-29T09:54:02.624Z,19.80
2019-04-29T09:56:34.654Z,19.02
2019-04-29T09:59:23.899Z,20.27
2019-04-29T10:01:56.259Z,20.25
2019-04-29T10:04:40.016Z,21.62
2019-04-29T10:07:11.519Z,21.73
2019-04-29T10:09:41.135Z,22.22
2019-04-29T10:12:10.678Z,21.12
2019-04-29T10:14:40.122Z,20.57
2019-04-29T10:17:15.426Z,20.70
2019-04-29T10:19:49.638Z,19.32
2019-04-29T10:22:19.115Z,18.07
2019-04-29T10:24:48.553Z,17.75
2019-04-29T10:27:18.052Z,17.92
2019-04-29T10:29:50.778Z,16.82
2019-04-29T10:32:20.761Z,19.07
2019-04-29T10:34:50.318Z,17.42
2019-04-29T10:37:23.768Z,16.77
2019-04-29T10:40:10.951Z,15.63
2019-04-29T10:42:40.462Z,14.80
2019-04-29T10:45:12.716Z,15.30
2019-04-29T10:47:46.492Z,16.10
2019-04-29T10:50:17.750Z,16.50
2019-04-29T10:52:47.357Z,15.08
2019-04-29T10:55:17.698Z,14.78
2019-04-29T10:57:49.761Z,15.35
2019-04-29T11:00:32.040Z,14.10
2019-04-29T11:03:01.635Z,14.38
2019-04-29T11:05:34.103Z,14.30
2019-04-29T11:08:09.066Z,14.00
2019-04-29T11:10:38.550Z,13.65
2019-04-29T11:13:08.402Z,15.03
2019-04-29T11:15:37.983Z,14.05
2019-04-29T11:18:07.992Z,14.33
2019-04-29T11:20:37.509Z,14.83
2019-04-29T11:23:16.442Z,15.32
2019-04-29T11:25:50.819Z,16.20
2019-04-29T11:28:17.588Z,15.93
2019-04-29T11:30:49.592Z,15.98
2019-04-29T11:33:35.529Z,15.90
2019-04-29T11:36:06.111Z,16.45
2019-04-29T11:38:38.368Z,15.00
2019-04-29T11:41:12.233Z,15.23
2019-04-29T11:43:39.797Z,16.20
2019-04-29T11:46:14.468Z,16.45
2019-04-29T11:48:41.532Z,15.88
2019-04-29T11:51:34.258Z,14.70
2019-04-29T11:54:00.738Z,14.50
2019-04-29T11:56:30.410Z,14.28
2019-04-29T11:59:18.018Z,15.10
2019-04-29T12:01:55.389Z,16.40
2019-04-29T12:04:33.521Z,14.90
2019-04-29T12:07:00.681Z,14.73
2019-04-29T12:09:32.220Z,14.78
2019-04-29T12:12:01.972Z,14.05
2019-04-29T12:14:42.100Z,13.50
2019-04-29T12:17:21.962Z,13.22
2019-04-29T12:19:55.583Z,15.98
2019-04-29T12:22:30.152Z,13.68
2019-04-29T12:24:56.213Z,12.90
2019-04-29T12:27:28.816Z,12.55
2019-04-29T12:29:59.354Z,13.83
2019-04-29T12:32:38.634Z,12.98
2019-04-29T12:35:09.841Z,14.20
2019-04-29T12:37:40.927Z,13.43
2019-04-29T12:40:14.524Z,12.75
2019-04-29T12:42:55.340Z,13.25
2019-04-29T12:45:26.603Z,12.18
2019-04-29T12:47:56.181Z,12.23
2019-04-29T12:50:25.758Z,13.10
2019-04-29T12:52:55.188Z,13.95
2019-04-29T12:55:43.503Z,12.50
2019-04-29T12:57:57.478Z,13.28
2019-04-29T13:00:28.641Z,13.35
2019-04-29T13:03:02.826Z,13.28
2019-04-29T13:05:39.791Z,13.08
2019-04-29T13:08:10.879Z,12.95
2019-04-29T13:10:44.091Z,13.38
2019-04-29T13:13:15.638Z,13.70
2019-04-29T13:15:55.812Z,13.32
2019-04-29T13:18:26.997Z,14.95
2019-04-29T13:21:09.465Z,14.38
2019-04-29T13:23:34.834Z,15.03
2019-04-29T13:26:00.416Z,15.00
2019-04-29T13:28:34.169Z,15.53
2019-04-29T13:31:03.517Z,18.62
2019-04-29T13:33:34.211Z,16.62
2019-04-29T13:36:04.303Z,15.10
2019-04-29T13:38:33.742Z,14.95
2019-04-29T13:41:13.810Z,15.50
2019-04-29T13:43:35.584Z,14.98
2019-04-29T13:46:16.528Z,15.98
2019-04-29T13:49:06.134Z,16.42
2019-04-29T13:51:35.824Z,15.60
2019-04-29T13:54:06.235Z,17.00
2019-04-29T13:56:54.268Z,17.02
2019-04-29T13:59:10.610Z,16.77
2019-04-29T14:01:58.604Z,17.77
2019-04-29T14:04:24.405Z,16.12
2019-04-29T14:06:56.729Z,17.57
2019-04-29T14:09:19.040Z,17.02
2019-04-29T14:12:01.011Z,17.82
2019-04-29T14:14:22.672Z,17.20
2019-04-29T14:17:06.876Z,17.23
2019-04-29T14:19:40.265Z,19.23
2019-04-29T14:21:53.216Z,18.35
2019-04-29T14:24:22.790Z,18.90
2019-04-29T14:26:52.303Z,18.55
2019-04-29T14:29:22.999Z,18.52
2019-04-29T14:31:59.120Z,18.35
2019-04-29T14:34:36.753Z,18.60
2019-04-29T14:37:25.377Z,18.35
2019-04-29T14:39:37.965Z,18.85
2019-04-29T14:42:18.137Z,19.32
2019-04-29T14:44:49.285Z,19.07
2019-04-29T14:47:26.363Z,18.90
2019-04-29T14:49:57.441Z,19.45
2019-04-29T14:52:26.976Z,18.62
2019-04-29T14:54:56.428Z,18.87
2019-04-29T14:57:25.906Z,19.65
2019-04-29T14:59:55.554Z,18.48
2019-04-29T15:02:27.348Z,18.25
2019-04-29T15:04:56.848Z,19.67
2019-04-29T15:07:28.985Z,19.35
2019-04-29T15:09:58.773Z,18.80
2019-04-29T15:12:51.145Z,19.75
2019-04-29T15:15:12.612Z,19.60
2019-04-29T15:17:46.715Z,19.35
2019-04-29T15:20:25.080Z,18.67
2019-04-29T15:22:55.739Z,18.85
2019-04-29T15:25:25.223Z,20.77
2019-04-29T15:27:54.664Z,19.42
2019-04-29T15:30:24.179Z,18.32
2019-04-29T15:32:58.038Z,19.57
2019-04-29T15:35:25.577Z,20.02
2019-04-29T15:37:55.107Z,19.50
2019-04-29T15:40:26.650Z,19.57
2019-04-29T15:42:56.726Z,19.90
2019-04-29T15:45:28.107Z,19.15
2019-04-29T15:47:57.415Z,20.15
2019-04-29T15:50:26.853Z,19.82
2019-04-29T15:52:58.690Z,19.32
2019-04-29T15:55:27.544Z,20.05
2019-04-29T15:57:57.045Z,20.23
2019-04-29T16:00:26.852Z,20.50
2019-04-29T16:02:56.895Z,20.77
2019-04-29T16:07:22.021Z,20.55
2019-04-29T16:09:58.993Z,20.92
2019-04-29T16:12:36.063Z,21.85
2019-04-29T16:15:07.187Z,22.35
2019-04-29T16:17:37.972Z,21.57
2019-04-29T16:20:08.225Z,21.93
2019-04-29T16:25:11.223Z,22.25
2019-04-29T16:27:41.044Z,22.42
2019-04-29T16:30:18.166Z,22.50
2019-04-29T16:32:43.461Z,21.87
2019-04-29T16:35:17.866Z,22.15
2019-04-29T16:37:44.337Z,21.75
2019-04-29T16:40:14.879Z,22.22
2019-04-29T16:42:49.905Z,22.02
2019-04-29T16:45:21.020Z,23.20
2019-04-29T16:47:50.613Z,22.27
2019-04-29T16:50:20.191Z,23.02
2019-04-29T16:52:50.043Z,22.58
2019-04-29T16:55:19.619Z,24.75
2019-04-29T16:57:49.068Z,24.52
2019-04-29T17:00:20.916Z,23.73
2019-04-29T17:02:50.425Z,23.70
2019-04-29T17:05:19.905Z,23.47
2019-04-29T17:07:49.398Z,24.77
2019-04-29T17:10:20.631Z,25.02
2019-04-29T17:12:51.264Z,24.80
2019-04-29T17:15:25.415Z,25.48
2019-04-29T17:17:51.957Z,24.18
2019-04-29T17:20:22.178Z,24.92
2019-04-29T17:22:51.649Z,24.70
2019-04-29T17:25:21.093Z,25.12
2019-04-29T17:27:52.547Z,25.02
2019-04-29T17:30:46.707Z,25.90
2019-04-29T17:33:27.766Z,26.30
2019-04-29T17:35:15.680Z,22.15
2019-04-29T17:35:54.364Z,26.93
2019-04-29T17:38:24.096Z,25.55
2019-04-29T17:40:53.638Z,25.68
2019-04-29T17:43:27.506Z,26.80
2019-04-29T17:46:07.588Z,27.20
2019-04-29T17:48:38.888Z,26.23
2019-04-29T17:51:11.770Z,28.47
2019-04-29T17:53:46.051Z,26.93
2019-04-29T17:56:24.865Z,27.95
2019-04-29T17:58:58.253Z,27.20
2019-04-29T18:01:46.923Z,27.13
2019-04-29T18:04:23.584Z,30.85
2019-04-29T18:07:08.976Z,31.62
2019-04-29T18:09:44.974Z,29.27
2019-04-29T18:12:17.769Z,30.82
2019-04-29T18:14:48.404Z,30.60
2019-04-29T18:17:27.236Z,29.45
2019-04-29T18:19:55.377Z,30.02
2019-04-29T18:22:44.658Z,29.92
2019-04-29T18:25:15.959Z,29.52
2019-04-29T18:27:49.069Z,31.02
2019-04-29T18:30:34.645Z,29.80
2019-04-29T18:32:50.739Z,28.07
2019-04-29T18:35:20.582Z,29.02
2019-04-29T18:37:50.063Z,29.57
2019-04-29T18:40:20.169Z,28.62
2019-04-29T18:42:50.047Z,27.02
2019-04-29T18:45:19.572Z,28.62
2019-04-29T18:47:49.086Z,27.50
2019-04-29T18:50:19.177Z,25.52
2019-04-29T18:52:48.631Z,26.77
2019-04-29T18:55:18.121Z,27.15
2019-04-29T18:57:47.664Z,26.73
2019-04-29T19:00:19.865Z,27.42
2019-04-29T19:02:57.052Z,26.57
2019-04-29T19:05:35.439Z,29.12
2019-04-29T19:08:12.345Z,29.77
2019-04-29T19:10:37.437Z,30.82
2019-04-29T19:13:12.622Z,33.35
2019-04-29T19:15:39.989Z,34.03
2019-04-29T19:18:12.473Z,33.42
2019-04-29T19:20:40.681Z,31.62
2019-04-29T19:23:10.533Z,32.48
2019-04-29T19:25:41.530Z,32.95
2019-04-29T19:28:14.274Z,31.85
2019-04-29T19:30:45.117Z,31.52
2019-04-29T19:33:15.183Z,31.00
2019-04-29T19:35:45.214Z,29.77
2019-04-29T19:38:15.810Z,28.20
2019-04-29T19:40:45.668Z,27.75
2019-04-29T19:43:18.898Z,27.95
2019-04-29T19:45:49.117Z,27.45
2019-04-29T19:48:17.863Z,26.17
2019-04-29T19:50:51.640Z,25.30
2019-04-29T19:53:18.587Z,23.67
2019-04-29T19:56:01.026Z,23.85
2019-04-29T19:58:28.506Z,20.60
2019-04-29T20:00:52.126Z,21.00
2019-04-29T20:03:26.574Z,21.10
2019-04-29T20:06:08.449Z,21.68
2019-04-29T20:08:51.197Z,23.35
2019-04-29T20:11:12.369Z,25.50
2019-04-29T20:13:40.364Z,28.62
2019-04-29T20:16:39.802Z,25.97
2019-04-29T20:19:16.241Z,26.20
2019-04-29T20:21:43.306Z,25.77
2019-04-29T20:24:15.621Z,26.05
2019-04-29T20:26:46.647Z,25.45
2019-04-29T20:29:16.088Z,26.07
2019-04-29T20:31:51.546Z,25.92
2019-04-29T20:34:23.768Z,25.72
2019-04-29T20:36:48.397Z,25.97
2019-04-29T20:39:23.035Z,26.73
2019-04-29T20:41:49.364Z,26.50
2019-04-29T20:44:19.349Z,24.95
2019-04-29T20:47:12.951Z,23.38
2019-04-29T20:49:20.516Z,23.40
2019-04-29T20:51:52.739Z,22.22
2019-04-29T20:54:25.704Z,18.35
2019-04-29T20:57:02.885Z,17.92
2019-04-29T20:59:26.613Z,13.88
2019-04-29T21:02:11.286Z,11.88
2019-04-29T21:04:38.463Z,10.78
2019-04-29T21:07:03.259Z,10.72
2019-04-29T21:09:32.958Z,9.25
2019-04-29T21:12:04.163Z,9.60
2019-04-29T21:14:41.407Z,8.50
2019-04-29T21:17:11.363Z,7.67
2019-04-29T21:19:40.936Z,7.20
2019-04-29T21:22:12.934Z,7.65
2019-04-29T21:24:41.873Z,7.72
2019-04-29T21:27:15.932Z,8.25
2019-04-29T21:29:42.683Z,7.78
2019-04-29T21:32:12.290Z,8.45
2019-04-29T21:34:45.152Z,9.00
2019-04-29T21:37:16.404Z,9.30
2019-04-29T21:39:47.478Z,8.43
2019-04-29T21:42:36.677Z,8.80
2019-04-29T21:45:09.003Z,8.55
2019-04-29T21:47:44.976Z,9.15
2019-04-29T21:50:10.066Z,9.03
2019-04-29T21:52:39.867Z,8.65
2019-04-29T21:55:09.552Z,8.00
2019-04-29T21:57:38.982Z,8.00
2019-04-29T22:00:10.937Z,8.73
2019-04-29T22:02:46.621Z,8.43
2019-04-29T22:05:14.767Z,8.38
2019-04-29T22:07:47.477Z,7.55
2019-04-29T22:10:19.943Z,7.62
2019-04-29T22:12:50.969Z,7.58
2019-04-29T22:15:29.757Z,7.90
2019-04-29T22:17:56.380Z,7.40
2019-04-29T22:20:21.750Z,7.60
2019-04-29T22:22:51.367Z,7.92
2019-04-29T22:25:21.162Z,7.60
2019-04-29T22:27:50.622Z,8.08
2019-04-29T22:30:20.510Z,7.45
2019-04-29T22:32:51.867Z,7.47
2019-04-29T22:35:21.421Z,8.08
2019-04-29T22:37:50.979Z,7.60
2019-04-29T22:40:20.544Z,7.87
2019-04-29T22:43:04.689Z,7.50
2019-04-29T22:45:29.510Z,7.37
2019-04-29T22:48:14.390Z,7.50
2019-04-29T22:50:33.610Z,7.35
2019-04-29T22:53:07.374Z,7.37
2019-04-29T22:55:38.754Z,7.47
2019-04-29T22:58:09.761Z,7.55
2019-04-29T23:00:37.491Z,7.33
2019-04-29T23:03:07.068Z,7.25
2019-04-29T23:05:37.854Z,7.53
2019-04-29T23:08:07.476Z,7.90
2019-04-29T23:10:36.904Z,8.35
2019-04-29T23:13:06.442Z,7.80
2019-04-29T23:15:35.981Z,8.13
2019-04-29T23:18:06.442Z,8.25
2019-04-29T23:20:43.099Z,8.45
2019-04-29T23:23:15.669Z,7.72
2019-04-29T23:25:52.785Z,7.62
2019-04-29T23:28:26.441Z,7.75
2019-04-29T23:30:53.555Z,8.25
2019-04-29T23:33:24.138Z,7.75
2019-04-29T23:35:55.980Z,8.43
2019-04-29T23:38:25.765Z,7.78
2019-04-29T23:40:56.409Z,7.97
2019-04-29T23:43:28.431Z,7.95
2019-04-29T23:46:00.537Z,8.43
2019-04-29T23:48:38.874Z,7.90
2019-04-29T23:50:59.403Z,8.40
2019-04-29T23:53:28.873Z,8.30
2019-04-29T23:56:00.234Z,8.38
2019-04-29T23:58:38.551Z,7.87
